sensor_id;sensor_type;location;lat;lon;timestamp;pressure;altitude;pressure_sealevel;temperature;humidity
47374;BME280;33123;50.118;10.272;2022-08-03T00:01:40;97779.38;;;20.04;46.59
47374;BME280;33123;50.118;10.272;2022-08-03T00:04:08;97779.38;;;20.04;46.09
47374;BME280;33123;50.118;10.272;2022-08-03T00:06:36;97767.91;;;20.03;45.95
47374;BME280;33123;50.118;10.272;2022-08-03T00:09:03;97776.72;;;20.04;46.12
47374;BME280;33123;50.118;10.272;2022-08-03T00:11:29;97777.22;;;20.06;46.50
47374;BME280;33123;50.118;10.272;2022-08-03T00:13:57;97780.69;;;20.07;46.04
47374;BME280;33123;50.118;10.272;2022-08-03T00:16:24;97776.44;;;20.06;46.18
47374;BME280;33123;50.118;10.272;2022-08-03T00:18:51;97777.69;;;20.08;46.23
47374;BME280;33123;50.118;10.272;2022-08-03T00:21:17;97772.84;;;20.10;46.52
47374;BME280;33123;50.118;10.272;2022-08-03T00:23:44;97765.72;;;20.06;46.13
47374;BME280;33123;50.118;10.272;2022-08-03T00:26:10;97774.09;;;20.13;46.25
47374;BME280;33123;50.118;10.272;2022-08-03T00:28:37;97782.59;;;20.15;46.33
47374;BME280;33123;50.118;10.272;2022-08-03T00:31:05;97776.19;;;20.16;46.38
47374;BME280;33123;50.118;10.272;2022-08-03T00:33:32;97772.69;;;20.15;46.41
47374;BME280;33123;50.118;10.272;2022-08-03T00:35:59;97775.34;;;20.15;46.65
47374;BME280;33123;50.118;10.272;2022-08-03T00:38:25;97771.91;;;20.15;46.84
47374;BME280;33123;50.118;10.272;2022-08-03T00:40:52;97772.53;;;20.12;46.09
47374;BME280;33123;50.118;10.272;2022-08-03T00:43:23;97772.53;;;20.12;46.18
47374;BME280;33123;50.118;10.272;2022-08-03T00:45:50;97769.34;;;20.10;45.97
47374;BME280;33123;50.118;10.272;2022-08-03T00:48:18;97777.53;;;20.04;46.52
47374;BME280;33123;50.118;10.272;2022-08-03T00:50:45;97765.84;;;20.00;46.32
47374;BME280;33123;50.118;10.272;2022-08-03T00:53:12;97779.81;;;19.97;46.72
47374;BME280;33123;50.118;10.272;2022-08-03T00:55:40;97737.25;;;19.65;46.43
47374;BME280;33123;50.118;10.272;2022-08-03T00:58:07;97782.94;;;19.91;46.88
47374;BME280;33123;50.118;10.272;2022-08-03T01:00:36;97789.38;;;19.90;46.44
47374;BME280;33123;50.118;10.272;2022-08-03T01:03:04;97780.56;;;19.89;46.54
47374;BME280;33123;50.118;10.272;2022-08-03T01:05:39;97784.81;;;19.90;46.70
47374;BME280;33123;50.118;10.272;2022-08-03T01:08:13;97759.03;;;19.72;46.89
47374;BME280;33123;50.118;10.272;2022-08-03T01:10:48;97778.38;;;19.91;47.06
47374;BME280;33123;50.118;10.272;2022-08-03T01:13:24;97775.38;;;19.93;46.90
47374;BME280;33123;50.118;10.272;2022-08-03T01:15:57;97770.03;;;19.93;46.78
47374;BME280;33123;50.118;10.272;2022-08-03T01:18:30;97773.81;;;19.92;46.92
47374;BME280;33123;50.118;10.272;2022-08-03T01:21:03;97768.75;;;19.90;46.94
47374;BME280;33123;50.118;10.272;2022-08-03T01:24:01;97775.22;;;19.89;47.04
47374;BME280;33123;50.118;10.272;2022-08-03T01:26:54;97772.34;;;19.86;47.15
47374;BME280;33123;50.118;10.272;2022-08-03T01:29:59;97775.34;;;19.84;47.39
47374;BME280;33123;50.118;10.272;2022-08-03T01:32:34;97769.00;;;19.80;47.67
47374;BME280;33123;50.118;10.272;2022-08-03T01:35:05;97774.47;;;19.75;47.72
47374;BME280;33123;50.118;10.272;2022-08-03T01:37:40;97765.97;;;19.73;47.86
47374;BME280;33123;50.118;10.272;2022-08-03T01:40:09;97736.22;;;19.52;47.73
47374;BME280;33123;50.118;10.272;2022-08-03T01:42:39;97765.78;;;19.69;47.87
47374;BME280;33123;50.118;10.272;2022-08-03T01:45:09;97763.41;;;19.68;47.59
47374;BME280;33123;50.118;10.272;2022-08-03T01:47:38;97768.56;;;19.64;48.01
47374;BME280;33123;50.118;10.272;2022-08-03T01:50:06;97764.63;;;19.62;47.98
47374;BME280;33123;50.118;10.272;2022-08-03T01:52:37;97761.72;;;19.58;48.32
47374;BME280;33123;50.118;10.272;2022-08-03T01:55:06;97765.81;;;19.56;48.46
47374;BME280;33123;50.118;10.272;2022-08-03T01:57:34;97762.16;;;19.51;48.28
47374;BME280;33123;50.118;10.272;2022-08-03T02:00:03;97762.25;;;19.46;48.13
47374;BME280;33123;50.118;10.272;2022-08-03T02:02:32;97760.50;;;19.42;48.56
47374;BME280;33123;50.118;10.272;2022-08-03T02:05:00;97758.72;;;19.37;48.62
47374;BME280;33123;50.118;10.272;2022-08-03T02:07:28;97754.09;;;19.29;49.31
47374;BME280;33123;50.118;10.272;2022-08-03T02:09:57;97764.41;;;19.22;49.71
47374;BME280;33123;50.118;10.272;2022-08-03T02:12:27;97757.59;;;19.16;50.24
47374;BME280;33123;50.118;10.272;2022-08-03T02:14:54;97753.94;;;19.12;50.17
47374;BME280;33123;50.118;10.272;2022-08-03T02:17:24;97760.97;;;19.08;50.46
47374;BME280;33123;50.118;10.272;2022-08-03T02:19:53;97753.25;;;19.06;50.53
47374;BME280;33123;50.118;10.272;2022-08-03T02:22:21;97755.13;;;19.06;50.40
47374;BME280;33123;50.118;10.272;2022-08-03T02:24:49;97744.56;;;19.01;50.45
47374;BME280;33123;50.118;10.272;2022-08-03T02:27:19;97750.38;;;19.03;50.82
47374;BME280;33123;50.118;10.272;2022-08-03T02:29:50;97748.31;;;18.99;50.91
47374;BME280;33123;50.118;10.272;2022-08-03T02:32:20;97761.16;;;18.97;50.91
47374;BME280;33123;50.118;10.272;2022-08-03T02:34:53;97754.56;;;18.95;50.84
47374;BME280;33123;50.118;10.272;2022-08-03T02:37:25;97749.53;;;18.93;51.34
47374;BME280;33123;50.118;10.272;2022-08-03T02:39:53;97757.81;;;18.92;50.96
47374;BME280;33123;50.118;10.272;2022-08-03T02:42:24;97757.03;;;18.91;51.09
47374;BME280;33123;50.118;10.272;2022-08-03T02:44:54;97704.41;;;18.64;51.38
47374;BME280;33123;50.118;10.272;2022-08-03T02:47:22;97751.69;;;18.91;51.36
47374;BME280;33123;50.118;10.272;2022-08-03T02:49:53;97752.78;;;18.90;51.10
47374;BME280;33123;50.118;10.272;2022-08-03T02:52:23;97755.44;;;18.90;51.32
47374;BME280;33123;50.118;10.272;2022-08-03T02:54:54;97748.53;;;18.89;51.31
47374;BME280;33123;50.118;10.272;2022-08-03T02:57:22;97695.00;;;18.53;50.67
47374;BME280;33123;50.118;10.272;2022-08-03T02:59:50;97747.22;;;18.87;50.84
47374;BME280;33123;50.118;10.272;2022-08-03T03:02:18;97747.53;;;18.85;50.96
47374;BME280;33123;50.118;10.272;2022-08-03T03:04:46;97744.38;;;18.83;51.02
47374;BME280;33123;50.118;10.272;2022-08-03T03:07:17;97746.53;;;18.81;51.28
47374;BME280;33123;50.118;10.272;2022-08-03T03:09:44;97748.72;;;18.79;51.35
47374;BME280;33123;50.118;10.272;2022-08-03T03:12:12;97746.38;;;18.78;51.36
47374;BME280;33123;50.118;10.272;2022-08-03T03:14:40;97728.72;;;18.63;51.31
47374;BME280;33123;50.118;10.272;2022-08-03T03:17:08;97747.72;;;18.75;51.28
47374;BME280;33123;50.118;10.272;2022-08-03T03:19:36;97745.06;;;18.75;51.25
47374;BME280;33123;50.118;10.272;2022-08-03T03:22:05;97741.13;;;18.72;51.44
47374;BME280;33123;50.118;10.272;2022-08-03T03:24:35;97748.34;;;18.72;51.88
47374;BME280;33123;50.118;10.272;2022-08-03T03:27:03;97749.72;;;18.69;51.84
47374;BME280;33123;50.118;10.272;2022-08-03T03:29:31;97751.91;;;18.67;51.82
47374;BME280;33123;50.118;10.272;2022-08-03T03:31:59;97720.03;;;18.43;52.32
47374;BME280;33123;50.118;10.272;2022-08-03T03:34:28;97747.09;;;18.64;52.15
47374;BME280;33123;50.118;10.272;2022-08-03T03:36:54;97750.56;;;18.65;51.81
47374;BME280;33123;50.118;10.272;2022-08-03T03:39:21;97748.19;;;18.63;51.96
47374;BME280;33123;50.118;10.272;2022-08-03T03:41:49;97752.28;;;18.61;51.82
47374;BME280;33123;50.118;10.272;2022-08-03T03:44:16;97753.34;;;18.60;52.05
47374;BME280;33123;50.118;10.272;2022-08-03T03:46:42;97750.66;;;18.60;52.29
47374;BME280;33123;50.118;10.272;2022-08-03T03:49:09;97753.63;;;18.58;52.29
47374;BME280;33123;50.118;10.272;2022-08-03T03:51:36;97756.63;;;18.57;52.29
47374;BME280;33123;50.118;10.272;2022-08-03T03:54:03;97754.53;;;18.54;52.53
47374;BME280;33123;50.118;10.272;2022-08-03T03:56:31;97759.59;;;18.55;52.40
47374;BME280;33123;50.118;10.272;2022-08-03T03:58:59;97763.03;;;18.56;52.72
47374;BME280;33123;50.118;10.272;2022-08-03T04:01:25;97761.47;;;18.55;52.57
47374;BME280;33123;50.118;10.272;2022-08-03T04:03:52;97756.13;;;18.55;52.80
47374;BME280;33123;50.118;10.272;2022-08-03T04:06:19;97760.38;;;18.56;52.71
47374;BME280;33123;50.118;10.272;2022-08-03T04:09:03;97755.03;;;18.56;52.67
47374;BME280;33123;50.118;10.272;2022-08-03T04:11:50;97752.84;;;18.58;53.83
47374;BME280;33123;50.118;10.272;2022-08-03T04:14:21;97754.63;;;18.62;53.33
47374;BME280;33123;50.118;10.272;2022-08-03T04:16:52;97755.84;;;18.70;53.29
47374;BME280;33123;50.118;10.272;2022-08-03T04:19:25;97756.25;;;18.77;52.98
47374;BME280;33123;50.118;10.272;2022-08-03T04:21:56;97762.78;;;18.85;52.47
47374;BME280;33123;50.118;10.272;2022-08-03T04:24:25;97760.00;;;18.90;52.69
47374;BME280;33123;50.118;10.272;2022-08-03T04:26:52;97762.25;;;18.96;52.46
47374;BME280;33123;50.118;10.272;2022-08-03T04:29:23;97758.41;;;19.03;52.52
47374;BME280;33123;50.118;10.272;2022-08-03T04:31:53;97761.44;;;19.10;52.42
47374;BME280;33123;50.118;10.272;2022-08-03T04:34:21;97770.97;;;19.16;52.27
47374;BME280;33123;50.118;10.272;2022-08-03T04:36:48;97769.66;;;19.27;52.17
47374;BME280;33123;50.118;10.272;2022-08-03T04:39:21;97761.53;;;19.32;52.21
47374;BME280;33123;50.118;10.272;2022-08-03T04:41:52;97767.03;;;19.49;52.16
47374;BME280;33123;50.118;10.272;2022-08-03T04:44:23;97775.81;;;19.64;51.77
47374;BME280;33123;50.118;10.272;2022-08-03T04:46:51;97762.78;;;19.71;51.16
47374;BME280;33123;50.118;10.272;2022-08-03T04:49:21;97769.63;;;19.99;51.44
47374;BME280;33123;50.118;10.272;2022-08-03T04:51:49;97774.16;;;20.21;51.15
47374;BME280;33123;50.118;10.272;2022-08-03T04:54:16;97780.25;;;20.44;50.01
47374;BME280;33123;50.118;10.272;2022-08-03T04:56:42;97772.34;;;20.70;49.96
47374;BME280;33123;50.118;10.272;2022-08-03T04:59:10;97781.44;;;21.00;49.35
47374;BME280;33123;50.118;10.272;2022-08-03T05:01:38;97779.16;;;21.33;48.58
47374;BME280;33123;50.118;10.272;2022-08-03T05:04:06;97777.59;;;21.67;47.70
47374;BME280;33123;50.118;10.272;2022-08-03T05:06:32;97774.56;;;22.03;47.15
47374;BME280;33123;50.118;10.272;2022-08-03T05:08:59;97773.41;;;22.39;46.37
47374;BME280;33123;50.118;10.272;2022-08-03T05:11:25;97770.59;;;22.74;45.50
47374;BME280;33123;50.118;10.272;2022-08-03T05:13:54;97781.66;;;23.10;44.93
47374;BME280;33123;50.118;10.272;2022-08-03T05:16:20;97781.75;;;23.43;43.74
47374;BME280;33123;50.118;10.272;2022-08-03T05:18:49;97777.25;;;23.77;43.01
47374;BME280;33123;50.118;10.272;2022-08-03T05:21:15;97783.75;;;24.09;43.01
47374;BME280;33123;50.118;10.272;2022-08-03T05:23:42;97771.78;;;24.31;42.11
47374;BME280;33123;50.118;10.272;2022-08-03T05:26:09;97782.31;;;24.69;42.09
47374;BME280;33123;50.118;10.272;2022-08-03T05:28:37;97787.16;;;25.00;41.46
47374;BME280;33123;50.118;10.272;2022-08-03T05:31:03;97777.38;;;25.33;41.08
47374;BME280;33123;50.118;10.272;2022-08-03T05:33:30;97784.56;;;25.69;40.37
47374;BME280;33123;50.118;10.272;2022-08-03T05:35:58;97784.78;;;26.04;39.61
47374;BME280;33123;50.118;10.272;2022-08-03T05:38:25;97778.78;;;26.39;38.83
47374;BME280;33123;50.118;10.272;2022-08-03T05:40:51;97776.97;;;26.74;38.33
47374;BME280;33123;50.118;10.272;2022-08-03T05:43:18;97783.66;;;27.12;37.59
47374;BME280;33123;50.118;10.272;2022-08-03T05:45:45;97780.66;;;27.52;37.60
47374;BME280;33123;50.118;10.272;2022-08-03T05:48:11;97782.22;;;27.88;36.19
47374;BME280;33123;50.118;10.272;2022-08-03T05:50:38;97747.72;;;28.08;36.17
47374;BME280;33123;50.118;10.272;2022-08-03T05:53:06;97784.88;;;28.73;35.27
47374;BME280;33123;50.118;10.272;2022-08-03T05:55:32;97784.72;;;29.12;34.57
47374;BME280;33123;50.118;10.272;2022-08-03T05:57:59;97786.41;;;29.50;33.98
47374;BME280;33123;50.118;10.272;2022-08-03T06:00:28;97786.16;;;29.92;33.49
47374;BME280;33123;50.118;10.272;2022-08-03T06:02:54;97791.25;;;30.28;32.71
47374;BME280;33123;50.118;10.272;2022-08-03T06:05:21;97789.97;;;30.59;32.31
47374;BME280;33123;50.118;10.272;2022-08-03T06:07:48;97783.28;;;30.97;31.33
47374;BME280;33123;50.118;10.272;2022-08-03T06:10:16;97782.78;;;31.32;31.60
47374;BME280;33123;50.118;10.272;2022-08-03T06:12:42;97793.03;;;31.64;30.64
47374;BME280;33123;50.118;10.272;2022-08-03T06:15:12;97783.84;;;31.93;30.08
47374;BME280;33123;50.118;10.272;2022-08-03T06:17:45;97790.91;;;32.30;29.63
47374;BME280;33123;50.118;10.272;2022-08-03T06:20:12;97784.75;;;32.54;29.04
47374;BME280;33123;50.118;10.272;2022-08-03T06:22:40;97784.34;;;32.77;28.48
47374;BME280;33123;50.118;10.272;2022-08-03T06:25:08;97792.56;;;32.99;28.47
47374;BME280;33123;50.118;10.272;2022-08-03T06:27:36;97791.72;;;33.23;28.14
47374;BME280;33123;50.118;10.272;2022-08-03T06:30:05;97787.38;;;33.47;28.44
47374;BME280;33123;50.118;10.272;2022-08-03T06:32:33;97790.81;;;33.69;27.54
47374;BME280;33123;50.118;10.272;2022-08-03T06:34:59;97765.81;;;33.74;27.14
47374;BME280;33123;50.118;10.272;2022-08-03T06:37:26;97793.75;;;34.14;27.72
47374;BME280;33123;50.118;10.272;2022-08-03T06:39:53;97796.78;;;34.30;27.15
47374;BME280;33123;50.118;10.272;2022-08-03T06:42:20;97794.31;;;34.54;26.01
47374;BME280;33123;50.118;10.272;2022-08-03T06:44:48;97796.56;;;34.66;25.81
47374;BME280;33123;50.118;10.272;2022-08-03T06:47:15;97796.09;;;34.75;25.65
47374;BME280;33123;50.118;10.272;2022-08-03T06:49:42;97793.31;;;34.82;25.85
47374;BME280;33123;50.118;10.272;2022-08-03T06:52:08;97801.81;;;34.91;25.56
47374;BME280;33123;50.118;10.272;2022-08-03T06:54:35;97799.00;;;35.02;25.42
47374;BME280;33123;50.118;10.272;2022-08-03T06:57:02;97801.66;;;35.12;25.59
47374;BME280;33123;50.118;10.272;2022-08-03T06:59:29;97800.75;;;35.26;25.08
47374;BME280;33123;50.118;10.272;2022-08-03T07:01:57;97791.94;;;35.42;25.34
47374;BME280;33123;50.118;10.272;2022-08-03T07:04:23;97802.31;;;35.61;25.66
47374;BME280;33123;50.118;10.272;2022-08-03T07:06:50;97797.69;;;35.89;25.18
47374;BME280;33123;50.118;10.272;2022-08-03T07:09:16;97793.38;;;36.18;25.00
47374;BME280;33123;50.118;10.272;2022-08-03T07:11:43;97795.81;;;36.40;24.73
47374;BME280;33123;50.118;10.272;2022-08-03T07:14:10;97792.63;;;36.68;24.04
47374;BME280;33123;50.118;10.272;2022-08-03T07:16:37;97798.53;;;36.94;23.58
47374;BME280;33123;50.118;10.272;2022-08-03T07:19:04;97787.78;;;37.23;24.39
47374;BME280;33123;50.118;10.272;2022-08-03T07:21:31;97799.03;;;37.52;23.04
47374;BME280;33123;50.118;10.272;2022-08-03T07:23:58;97792.94;;;37.81;23.07
47374;BME280;33123;50.118;10.272;2022-08-03T07:26:24;97797.19;;;38.05;22.52
47374;BME280;33123;50.118;10.272;2022-08-03T07:28:51;97802.84;;;38.34;22.45
47374;BME280;33123;50.118;10.272;2022-08-03T07:31:17;97796.66;;;38.63;22.61
47374;BME280;33123;50.118;10.272;2022-08-03T07:33:44;97806.91;;;38.95;21.79
47374;BME280;33123;50.118;10.272;2022-08-03T07:36:13;97801.56;;;39.20;20.36
47374;BME280;33123;50.118;10.272;2022-08-03T07:38:39;97802.94;;;39.41;20.32
47374;BME280;33123;50.118;10.272;2022-08-03T07:41:06;97795.03;;;39.56;19.55
47374;BME280;33123;50.118;10.272;2022-08-03T07:43:33;97804.81;;;39.44;19.21
47374;BME280;33123;50.118;10.272;2022-08-03T07:45:59;97797.13;;;39.23;18.78
47374;BME280;33123;50.118;10.272;2022-08-03T07:48:26;97793.63;;;38.90;19.32
47374;BME280;33123;50.118;10.272;2022-08-03T07:50:52;97796.22;;;38.64;19.65
47374;BME280;33123;50.118;10.272;2022-08-03T07:53:20;97763.78;;;38.55;20.38
47374;BME280;33123;50.118;10.272;2022-08-03T07:55:47;97794.66;;;38.96;19.24
47374;BME280;33123;50.118;10.272;2022-08-03T07:58:14;97790.56;;;39.17;19.05
47374;BME280;33123;50.118;10.272;2022-08-03T08:00:42;97789.72;;;39.49;19.14
47374;BME280;33123;50.118;10.272;2022-08-03T08:03:09;97778.66;;;39.78;19.63
47374;BME280;33123;50.118;10.272;2022-08-03T08:05:36;97784.19;;;40.03;19.77
47374;BME280;33123;50.118;10.272;2022-08-03T08:08:03;97761.16;;;40.10;18.37
47374;BME280;33123;50.118;10.272;2022-08-03T08:10:31;97789.09;;;40.25;18.46
47374;BME280;33123;50.118;10.272;2022-08-03T08:12:59;97780.91;;;40.34;17.66
47374;BME280;33123;50.118;10.272;2022-08-03T08:15:26;97777.44;;;39.92;17.26
47374;BME280;33123;50.118;10.272;2022-08-03T08:17:56;97790.34;;;39.40;16.93
47374;BME280;33123;50.118;10.272;2022-08-03T08:20:25;97777.03;;;39.51;18.03
47374;BME280;33123;50.118;10.272;2022-08-03T08:22:51;97776.88;;;39.13;17.94
47374;BME280;33123;50.118;10.272;2022-08-03T08:25:18;97781.03;;;39.21;17.71
47374;BME280;33123;50.118;10.272;2022-08-03T08:27:47;97776.59;;;38.78;17.82
47374;BME280;33123;50.118;10.272;2022-08-03T08:30:17;97772.81;;;38.56;17.86
47374;BME280;33123;50.118;10.272;2022-08-03T08:32:44;97775.56;;;38.56;18.16
47374;BME280;33123;50.118;10.272;2022-08-03T08:35:11;97775.63;;;38.36;18.82
47374;BME280;33123;50.118;10.272;2022-08-03T08:37:38;97772.56;;;38.14;18.86
47374;BME280;33123;50.118;10.272;2022-08-03T08:40:06;97765.72;;;38.22;18.99
47374;BME280;33123;50.118;10.272;2022-08-03T08:42:36;97777.38;;;38.46;18.86
47374;BME280;33123;50.118;10.272;2022-08-03T08:45:06;97775.22;;;38.70;18.87
47374;BME280;33123;50.118;10.272;2022-08-03T08:47:36;97778.56;;;38.94;17.42
47374;BME280;33123;50.118;10.272;2022-08-03T08:50:03;97785.91;;;38.85;17.72
47374;BME280;33123;50.118;10.272;2022-08-03T08:52:32;97780.06;;;39.28;18.27
47374;BME280;33123;50.118;10.272;2022-08-03T08:55:03;97782.31;;;39.17;17.49
47374;BME280;33123;50.118;10.272;2022-08-03T08:57:33;97773.00;;;38.13;18.98
47374;BME280;33123;50.118;10.272;2022-08-03T09:00:00;97776.59;;;38.62;18.52
47374;BME280;33123;50.118;10.272;2022-08-03T09:02:29;97779.16;;;38.53;18.54
47374;BME280;33123;50.118;10.272;2022-08-03T09:04:57;97772.88;;;38.69;18.25
47374;BME280;33123;50.118;10.272;2022-08-03T09:07:24;97781.44;;;38.74;17.75
47374;BME280;33123;50.118;10.272;2022-08-03T09:09:50;97781.59;;;38.84;18.03
47374;BME280;33123;50.118;10.272;2022-08-03T09:12:17;97779.84;;;39.06;18.71
47374;BME280;33123;50.118;10.272;2022-08-03T09:14:44;97782.59;;;39.06;17.54
47374;BME280;33123;50.118;10.272;2022-08-03T09:17:11;97776.75;;;39.04;18.06
47374;BME280;33123;50.118;10.272;2022-08-03T09:19:39;97776.56;;;39.11;18.40
47374;BME280;33123;50.118;10.272;2022-08-03T09:22:08;97771.09;;;38.78;18.49
47374;BME280;33123;50.118;10.272;2022-08-03T09:24:35;97776.41;;;38.86;17.76
47374;BME280;33123;50.118;10.272;2022-08-03T09:27:04;97776.19;;;39.09;18.03
47374;BME280;33123;50.118;10.272;2022-08-03T09:29:32;97745.22;;;39.05;17.85
47374;BME280;33123;50.118;10.272;2022-08-03T09:32:01;97769.19;;;39.37;17.38
47374;BME280;33123;50.118;10.272;2022-08-03T09:34:29;97776.25;;;39.51;17.41
47374;BME280;33123;50.118;10.272;2022-08-03T09:36:57;97773.19;;;39.49;18.07
47374;BME280;33123;50.118;10.272;2022-08-03T09:39:25;97770.84;;;39.76;17.84
47374;BME280;33123;50.118;10.272;2022-08-03T09:42:06;97766.97;;;39.86;17.05
47374;BME280;33123;50.118;10.272;2022-08-03T09:44:33;97766.19;;;39.73;16.94
47374;BME280;33123;50.118;10.272;2022-08-03T09:47:00;97754.28;;;40.02;17.94
47374;BME280;33123;50.118;10.272;2022-08-03T09:49:27;97755.84;;;40.28;17.26
47374;BME280;33123;50.118;10.272;2022-08-03T09:51:54;97758.63;;;40.54;16.85
47374;BME280;33123;50.118;10.272;2022-08-03T09:54:29;97760.50;;;40.31;17.55
47374;BME280;33123;50.118;10.272;2022-08-03T09:56:56;97761.72;;;40.18;17.08
47374;BME280;33123;50.118;10.272;2022-08-03T09:59:24;97753.97;;;40.00;17.01
47374;BME280;33123;50.118;10.272;2022-08-03T10:01:52;97755.84;;;38.90;18.38
47374;BME280;33123;50.118;10.272;2022-08-03T10:04:19;97757.50;;;39.46;17.73
47374;BME280;33123;50.118;10.272;2022-08-03T10:07:01;97764.16;;;39.61;17.40
47374;BME280;33123;50.118;10.272;2022-08-03T10:09:30;97758.59;;;39.77;17.97
47374;BME280;33123;50.118;10.272;2022-08-03T10:11:57;97749.00;;;40.07;17.94
47374;BME280;33123;50.118;10.272;2022-08-03T10:14:32;97742.34;;;40.30;17.22
47374;BME280;33123;50.118;10.272;2022-08-03T10:16:59;97751.41;;;40.44;16.71
47374;BME280;33123;50.118;10.272;2022-08-03T10:19:26;97740.91;;;40.38;17.15
47374;BME280;33123;50.118;10.272;2022-08-03T10:21:55;97745.56;;;39.91;17.02
47374;BME280;33123;50.118;10.272;2022-08-03T10:24:24;97738.16;;;39.88;17.83
47374;BME280;33123;50.118;10.272;2022-08-03T10:27:00;97733.63;;;39.68;17.08
47374;BME280;33123;50.118;10.272;2022-08-03T10:29:28;97737.84;;;38.86;17.91
47374;BME280;33123;50.118;10.272;2022-08-03T10:31:59;97737.41;;;39.16;18.02
47374;BME280;33123;50.118;10.272;2022-08-03T10:34:36;97732.34;;;39.44;17.58
47374;BME280;33123;50.118;10.272;2022-08-03T10:37:09;97741.66;;;39.21;18.23
47374;BME280;33123;50.118;10.272;2022-08-03T10:39:36;97736.28;;;39.72;17.48
47374;BME280;33123;50.118;10.272;2022-08-03T10:42:20;97719.50;;;40.04;17.80
47374;BME280;33123;50.118;10.272;2022-08-03T10:44:50;97722.94;;;39.83;17.26
47374;BME280;33123;50.118;10.272;2022-08-03T10:47:19;97727.22;;;40.35;17.21
47374;BME280;33123;50.118;10.272;2022-08-03T10:49:47;97722.72;;;40.28;16.63
47374;BME280;33123;50.118;10.272;2022-08-03T10:52:15;97713.78;;;40.11;16.93
47374;BME280;33123;50.118;10.272;2022-08-03T10:54:43;97709.75;;;40.51;17.71
47374;BME280;33123;50.118;10.272;2022-08-03T10:57:49;97716.53;;;40.24;16.90
47374;BME280;33123;50.118;10.272;2022-08-03T11:00:18;97709.88;;;40.82;17.49
47374;BME280;33123;50.118;10.272;2022-08-03T11:03:05;97704.41;;;41.04;16.36
47374;BME280;33123;50.118;10.272;2022-08-03T11:05:34;97688.63;;;40.92;16.28
47374;BME280;33123;50.118;10.272;2022-08-03T11:08:23;97702.06;;;40.07;16.85
47374;BME280;33123;50.118;10.272;2022-08-03T11:10:52;97706.38;;;39.96;17.13
47374;BME280;33123;50.118;10.272;2022-08-03T11:13:22;97702.50;;;39.68;17.49
47374;BME280;33123;50.118;10.272;2022-08-03T11:15:51;97706.31;;;39.45;17.53
47374;BME280;33123;50.118;10.272;2022-08-03T11:18:19;97700.94;;;39.79;17.63
47374;BME280;33123;50.118;10.272;2022-08-03T11:20:48;97685.84;;;39.84;17.38
47374;BME280;33123;50.118;10.272;2022-08-03T11:23:17;97698.44;;;39.30;16.83
47374;BME280;33123;50.118;10.272;2022-08-03T11:26:09;97700.78;;;39.45;16.08
47374;BME280;33123;50.118;10.272;2022-08-03T11:28:37;97703.41;;;39.36;16.27
47374;BME280;33123;50.118;10.272;2022-08-03T11:34:22;97704.59;;;38.93;18.08
47374;BME280;33123;50.118;10.272;2022-08-03T11:37:18;97689.16;;;39.24;18.35
47374;BME280;33123;50.118;10.272;2022-08-03T11:39:46;97690.75;;;39.38;17.74
47374;BME280;33123;50.118;10.272;2022-08-03T11:42:37;97686.69;;;39.55;17.58
47374;BME280;33123;50.118;10.272;2022-08-03T11:45:06;97688.69;;;39.68;17.38
47374;BME280;33123;50.118;10.272;2022-08-03T11:47:36;97683.91;;;39.55;17.63
47374;BME280;33123;50.118;10.272;2022-08-03T11:50:04;97683.78;;;39.33;17.88
47374;BME280;33123;50.118;10.272;2022-08-03T11:52:34;97695.06;;;39.10;18.55
47374;BME280;33123;50.118;10.272;2022-08-03T11:55:01;97697.34;;;38.99;18.75
47374;BME280;33123;50.118;10.272;2022-08-03T11:57:28;97685.97;;;38.51;19.04
47374;BME280;33123;50.118;10.272;2022-08-03T11:59:55;97690.19;;;38.23;19.18
47374;BME280;33123;50.118;10.272;2022-08-03T12:02:23;97682.00;;;38.20;19.12
47374;BME280;33123;50.118;10.272;2022-08-03T12:04:49;97678.41;;;38.39;19.87
47374;BME280;33123;50.118;10.272;2022-08-03T12:07:16;97679.84;;;38.60;19.27
47374;BME280;33123;50.118;10.272;2022-08-03T12:09:43;97675.75;;;38.81;19.25
47374;BME280;33123;50.118;10.272;2022-08-03T12:12:10;97664.69;;;38.97;18.82
47374;BME280;33123;50.118;10.272;2022-08-03T12:14:45;97665.56;;;39.23;18.63
47374;BME280;33123;50.118;10.272;2022-08-03T12:17:12;97664.88;;;39.19;18.16
47374;BME280;33123;50.118;10.272;2022-08-03T12:19:43;97666.00;;;38.47;18.48
47374;BME280;33123;50.118;10.272;2022-08-03T12:22:10;97673.50;;;38.47;19.38
47374;BME280;33123;50.118;10.272;2022-08-03T12:24:41;97662.47;;;38.14;19.30
47374;BME280;33123;50.118;10.272;2022-08-03T12:27:08;97658.81;;;37.68;18.74
47374;BME280;33123;50.118;10.272;2022-08-03T12:29:35;97646.34;;;37.28;19.78
47374;BME280;33123;50.118;10.272;2022-08-03T12:32:02;97656.22;;;37.05;20.02
47374;BME280;33123;50.118;10.272;2022-08-03T12:34:45;97643.47;;;37.15;20.56
47374;BME280;33123;50.118;10.272;2022-08-03T12:37:11;97657.63;;;37.13;20.71
47374;BME280;33123;50.118;10.272;2022-08-03T12:39:38;97652.44;;;36.75;20.56
47374;BME280;33123;50.118;10.272;2022-08-03T12:42:05;97645.63;;;36.84;20.27
47374;BME280;33123;50.118;10.272;2022-08-03T12:44:33;97640.91;;;36.84;20.51
47374;BME280;33123;50.118;10.272;2022-08-03T12:47:01;97641.84;;;36.07;20.95
47374;BME280;33123;50.118;10.272;2022-08-03T12:49:28;97651.06;;;36.20;20.69
47374;BME280;33123;50.118;10.272;2022-08-03T12:51:57;97638.38;;;36.03;20.51
47374;BME280;33123;50.118;10.272;2022-08-03T12:54:26;97648.47;;;36.10;21.05
47374;BME280;33123;50.118;10.272;2022-08-03T12:56:57;97639.22;;;36.00;21.10
47374;BME280;33123;50.118;10.272;2022-08-03T12:59:25;97636.94;;;35.95;21.47
47374;BME280;33123;50.118;10.272;2022-08-03T13:01:52;97629.03;;;36.01;21.43
47374;BME280;33123;50.118;10.272;2022-08-03T13:04:25;97634.88;;;36.26;21.69